New Braunfels, TX (78132)

7:26 PM CST on February 05, 2016 (GMT -0600)
Gruene Crossing | | Change Station
CLOSE
Current Station
Personal Weather Station
Location: New Braunfels, TX
Elevation: 701 ft
Nearby Weather Stations

Elev 701 ft 29.73 °N, 98.10 °W | Updated 4 seconds ago

Overcast
Overcast
55.2 °F
Feels Like 55.2 °F
N
2.2
Wind Variable Wind from NE
Gusts 2.2 mph

Today
High -- | Low -- °F
--% Chance of Precip.
Yesterday
High -- | Low -- °F
Precip. -- in
Pressure 30.27 in
Visibility 10.0 miles
Clouds Overcast 7000 ft
Dew Point 8 °F
Humidity 15%
Rainfall 0.00 in
Snow Depth Not available.
7:20 AM 6:13 PM
Waning Crescent, 8% visible
METAR KBAZ 060051Z 15013KT 10SM OVC070 14/03 A3027 RMK AO2 SLP250 T01390028
Pressure 30.27 in
Visibility 10.0 miles
Clouds Overcast 7000 ft
Dew Point 8 °F
Humidity 15%
Rainfall 0.00 in
Snow Depth Not available.
7:20 AM 6:13 PM
Waning Crescent, 8% visible
METAR KBAZ 060051Z 15013KT 10SM OVC070 14/03 A3027 RMK AO2 SLP250 T01390028

10-Day Weather Forecast

Almanac

Astronomy

Feb. 05, 2016 Rise Set
Actual Time
Civil Twilight
Nautical Twilight
Astronomical Twilight
Moon
Length of Visible Light
Length of Day
Tomorrow will be .
, % of the Moon is Illuminated

Today's Extremes

State Highs State Lows

Community

WunderPhotos

Upload Photos

1,890,904 photos uploaded!

WunderBlog® & News

Nearby

Air Quality

  Air Quality AQ Index Pollutant
Not available.

Snow Depth

Station Depth Elevation

Earthquake Activity

City Distance Mag. Time & Date
Minimum magnitude displayed is 2.5.

Coastal Water Temperatures

Place Temperature

Stations

Nearby Weather Stations

Station Location Temp. Windchill Dew Point Humidity Wind Precip. Elev Updated Type
                   

Watches & Warnings

There are currently no watches in effect.